createdAt,value
2022-12-04T00:01:11.970Z,101374.46
2022-12-04T00:03:25.646Z,101369.63
2022-12-04T00:05:38.838Z,101369.02
2022-12-04T00:07:52.043Z,101367.89
2022-12-04T00:10:05.538Z,101370.29
2022-12-04T00:12:18.742Z,101368.61
2022-12-04T00:14:31.937Z,101365.67
2022-12-04T00:16:45.365Z,101362.91
2022-12-04T00:18:58.977Z,101361.94
2022-12-04T00:21:13.798Z,101363.02
2022-12-04T00:23:27.004Z,101364.88
2022-12-04T00:25:41.464Z,101366.38
2022-12-04T00:27:54.856Z,101368.70
2022-12-04T00:30:08.629Z,101365.38
2022-12-04T00:32:21.888Z,101367.21
2022-12-04T00:34:35.443Z,101369.90
2022-12-04T00:36:48.657Z,101371.17
2022-12-04T00:39:02.275Z,101363.07
2022-12-04T00:41:18.288Z,101356.75
2022-12-04T00:43:31.791Z,101352.36
2022-12-04T00:45:45.254Z,101353.27
2022-12-04T00:47:58.565Z,101355.22
2022-12-04T00:50:13.338Z,101350.48
2022-12-04T00:52:26.587Z,101349.14
2022-12-04T00:54:39.845Z,101349.59
2022-12-04T00:56:53.054Z,101348.09
2022-12-04T00:59:06.450Z,101347.05
2022-12-04T01:01:21.779Z,101358.91
2022-12-04T01:03:35.295Z,101351.89
2022-12-04T01:05:49.318Z,101350.84
2022-12-04T01:08:02.638Z,101350.35
2022-12-04T01:10:18.742Z,101354.61
2022-12-04T01:12:32.473Z,101356.42
2022-12-04T01:14:45.895Z,101357.36
2022-12-04T01:16:59.297Z,101359.73
2022-12-04T01:19:14.656Z,101358.57
2022-12-04T01:21:28.130Z,101352.32
2022-12-04T01:23:41.614Z,101351.89
2022-12-04T01:26:05.126Z,101351.20
2022-12-04T01:28:18.560Z,101351.38
2022-12-04T01:30:32.160Z,101346.54
2022-12-04T01:32:45.844Z,101345.21
2022-12-04T01:34:59.292Z,101343.86
2022-12-04T01:37:12.724Z,101339.44
2022-12-04T01:39:26.095Z,101336.66
2022-12-04T01:41:39.679Z,101339.02
2022-12-04T01:44:20.372Z,101336.79
2022-12-04T01:46:33.631Z,101332.28
2022-12-04T01:48:50.177Z,101333.16
2022-12-04T01:51:08.630Z,101328.77
2022-12-04T01:53:22.714Z,101328.35
2022-12-04T01:55:36.201Z,101329.26
2022-12-04T01:57:49.659Z,101325.64
2022-12-04T02:00:05.859Z,101323.74
2022-12-04T02:02:23.024Z,101323.75
2022-12-04T02:04:37.368Z,101326.93
2022-12-04T02:06:51.117Z,101335.61
2022-12-04T02:09:04.796Z,101336.13
2022-12-04T02:11:29.980Z,101338.45
2022-12-04T02:13:55.036Z,101340.96
2022-12-04T02:16:15.049Z,101346.09
2022-12-04T02:18:37.107Z,101340.26
2022-12-04T02:21:01.845Z,101341.70
2022-12-04T02:23:32.858Z,101335.70
2022-12-04T02:25:56.936Z,101327.08
2022-12-04T02:28:18.977Z,101318.48
2022-12-04T02:30:34.615Z,101315.50
2022-12-04T02:32:52.316Z,101320.15
2022-12-04T02:35:10.105Z,101312.95
2022-12-04T02:37:26.930Z,101316.23
2022-12-04T02:39:44.298Z,101315.29
2022-12-04T02:42:03.312Z,101314.99
2022-12-04T02:44:23.939Z,101323.88
2022-12-04T02:46:42.299Z,101328.55
2022-12-04T02:48:59.496Z,101325.76
2022-12-04T02:51:15.982Z,101327.02
2022-12-04T02:53:34.052Z,101331.81
2022-12-04T02:55:50.797Z,101330.24
2022-12-04T02:58:15.442Z,101323.46
2022-12-04T03:00:29.524Z,101323.23
2022-12-04T03:02:50.185Z,101322.41
2022-12-04T03:05:08.243Z,101319.66
2022-12-04T03:07:28.740Z,101320.76
2022-12-04T03:09:46.692Z,101313.60
2022-12-04T03:12:07.355Z,101308.34
2022-12-04T03:14:25.736Z,101310.69
2022-12-04T03:16:44.539Z,101312.67
2022-12-04T03:19:01.598Z,101307.79
2022-12-04T03:21:19.972Z,101309.23
2022-12-04T03:23:37.321Z,101314.88
2022-12-04T03:25:55.000Z,101314.59
2022-12-04T03:28:12.376Z,101315.41
2022-12-04T03:30:27.004Z,101316.70
2022-12-04T03:32:43.798Z,101318.70
2022-12-04T03:35:02.925Z,101325.27
2022-12-04T03:37:22.119Z,101326.52
2022-12-04T03:39:41.053Z,101324.77
2022-12-04T03:42:02.964Z,101330.04
2022-12-04T03:44:20.726Z,101328.48
2022-12-04T03:46:39.568Z,101326.70
2022-12-04T03:48:59.147Z,101325.86
2022-12-04T03:51:19.113Z,101322.41
2022-12-04T03:53:40.022Z,101320.48
2022-12-04T03:56:01.951Z,101323.30
2022-12-04T03:58:20.548Z,101317.54
2022-12-04T04:00:36.488Z,101311.85
2022-12-04T04:02:55.764Z,101312.26
2022-12-04T04:05:12.157Z,101311.01
2022-12-04T04:07:35.540Z,101303.44
2022-12-04T04:09:54.000Z,101298.05
2022-12-04T04:12:12.468Z,101297.69
2022-12-04T04:14:57.614Z,101288.36
2022-12-04T04:17:32.278Z,101290.73
2022-12-04T04:20:07.576Z,101286.40
2022-12-04T04:22:56.004Z,101289.95
2022-12-04T04:25:15.317Z,101289.13
2022-12-04T04:27:28.706Z,101287.38
2022-12-04T04:29:43.843Z,101291.94
2022-12-04T04:32:07.116Z,101292.55
2022-12-04T04:34:26.537Z,101295.33
2022-12-04T04:36:48.101Z,101289.92
2022-12-04T04:39:10.061Z,101290.64
2022-12-04T04:41:30.781Z,101288.76
2022-12-04T04:43:52.226Z,101291.27
2022-12-04T04:46:09.481Z,101286.77
2022-12-04T04:48:30.059Z,101283.08
2022-12-04T04:50:45.091Z,101281.47
2022-12-04T04:53:03.342Z,101279.09
2022-12-04T04:55:18.633Z,101274.14
2022-12-04T04:57:37.315Z,101270.15
2022-12-04T04:59:50.728Z,101269.89
2022-12-04T05:02:04.175Z,101269.38
2022-12-04T05:04:17.704Z,101265.45
2022-12-04T05:06:31.055Z,101265.61
2022-12-04T05:08:45.404Z,101264.22
2022-12-04T05:10:59.429Z,101263.34
2022-12-04T05:13:12.958Z,101263.77
2022-12-04T05:15:26.205Z,101266.50
2022-12-04T05:17:40.687Z,101266.60
2022-12-04T05:19:57.722Z,101270.23
2022-12-04T05:22:11.316Z,101268.34
2022-12-04T05:24:24.556Z,101268.76
2022-12-04T05:26:37.977Z,101262.49
2022-12-04T05:28:51.291Z,101261.79
2022-12-04T05:31:05.665Z,101260.20
2022-12-04T05:33:18.811Z,101258.42
2022-12-04T05:35:32.095Z,101258.19
2022-12-04T05:37:46.886Z,101257.79
2022-12-04T05:40:00.239Z,101254.05
2022-12-04T05:42:13.695Z,101257.77
2022-12-04T05:44:27.136Z,101248.96
2022-12-04T05:46:40.534Z,101248.98
2022-12-04T05:48:53.908Z,101247.66
2022-12-04T05:51:08.429Z,101244.17
2022-12-04T05:53:21.762Z,101243.04
2022-12-04T05:55:35.035Z,101245.32
2022-12-04T05:57:48.168Z,101242.92
2022-12-04T06:00:01.606Z,101243.16
2022-12-04T06:02:24.330Z,101242.84
2022-12-04T06:04:37.806Z,101247.02
2022-12-04T06:06:51.193Z,101241.16
2022-12-04T06:09:04.918Z,101245.27
2022-12-04T06:11:19.780Z,101245.45
2022-12-04T06:13:33.388Z,101240.94
2022-12-04T06:15:47.421Z,101238.27
2022-12-04T06:18:01.264Z,101240.23
2022-12-04T06:20:18.320Z,101245.27
2022-12-04T06:22:32.050Z,101247.81
2022-12-04T06:24:45.672Z,101242.41
2022-12-04T06:27:26.887Z,101247.28
2022-12-04T06:29:36.642Z,101239.54
2022-12-04T06:31:50.278Z,101240.27
2022-12-04T06:34:04.236Z,101237.68
2022-12-04T06:36:20.008Z,101230.34
2022-12-04T06:38:34.127Z,101224.16
2022-12-04T06:40:48.472Z,101228.94
2022-12-04T06:43:02.019Z,101228.66
2022-12-04T06:45:17.777Z,101228.04
2022-12-04T06:47:31.278Z,101223.08
2022-12-04T06:49:44.995Z,101224.00
2022-12-04T06:51:58.659Z,101224.02
2022-12-04T06:54:13.213Z,101219.61
2022-12-04T06:56:28.795Z,101216.64
2022-12-04T06:58:42.418Z,101217.88
2022-12-04T07:00:56.500Z,101213.91
2022-12-04T07:03:10.232Z,101212.41
2022-12-04T07:05:23.982Z,101202.66
2022-12-04T07:07:37.674Z,101201.89
2022-12-04T07:09:51.482Z,101197.71
2022-12-04T07:12:05.051Z,101193.20
2022-12-04T07:14:18.861Z,101188.02
2022-12-04T07:16:39.949Z,101186.65
2022-12-04T07:18:55.115Z,101181.38
2022-12-04T07:21:11.510Z,101177.07
2022-12-04T07:23:25.114Z,101178.05
2022-12-04T07:25:42.476Z,101175.02
2022-12-04T07:27:56.162Z,101172.79
2022-12-04T07:30:15.468Z,101167.41
2022-12-04T07:32:29.809Z,101167.95
2022-12-04T07:34:43.443Z,101170.08
2022-12-04T07:36:57.095Z,101168.84
2022-12-04T07:39:10.938Z,101168.31
2022-12-04T07:41:24.915Z,101168.49
2022-12-04T07:43:39.406Z,101166.61
2022-12-04T07:45:53.153Z,101168.49
2022-12-04T07:48:06.934Z,101167.08
2022-12-04T07:50:21.144Z,101160.23
2022-12-04T07:52:35.038Z,101159.02
2022-12-04T07:54:48.680Z,101156.11
2022-12-04T07:57:02.406Z,101151.86
2022-12-04T07:59:15.964Z,101151.42
2022-12-04T08:01:30.128Z,101152.96
2022-12-04T08:03:48.103Z,101150.94
2022-12-04T08:06:06.160Z,101152.83
2022-12-04T08:08:19.954Z,101152.45
2022-12-04T08:10:33.750Z,101151.84
2022-12-04T08:12:47.364Z,101147.58
2022-12-04T08:15:00.934Z,101139.77
2022-12-04T08:17:14.616Z,101131.40
2022-12-04T08:19:28.539Z,101132.69
2022-12-04T08:21:42.193Z,101131.88
2022-12-04T08:23:57.207Z,101128.62
2022-12-04T08:26:11.059Z,101129.40
2022-12-04T08:28:24.585Z,101124.02
2022-12-04T08:30:39.116Z,101123.80
2022-12-04T08:32:52.770Z,101121.61
2022-12-04T08:35:06.391Z,101117.71
2022-12-04T08:37:19.935Z,101113.59
2022-12-04T08:39:33.853Z,101110.76
2022-12-04T08:41:50.050Z,101110.16
2022-12-04T08:44:06.414Z,101106.78
2022-12-04T08:46:21.443Z,101107.05
2022-12-04T08:48:35.201Z,101103.31
2022-12-04T08:50:53.039Z,101101.02
2022-12-04T08:53:06.778Z,101089.06
2022-12-04T08:55:21.477Z,101093.71
2022-12-04T08:57:35.273Z,101084.75
2022-12-04T08:59:48.928Z,101094.04
2022-12-04T09:02:02.606Z,101086.95
2022-12-04T09:04:16.556Z,101085.21
2022-12-04T09:06:30.418Z,101083.67
2022-12-04T09:08:44.766Z,101089.57
2022-12-04T09:10:58.547Z,101089.27
2022-12-04T09:13:13.005Z,101084.16
2022-12-04T09:15:27.213Z,101082.42
2022-12-04T09:17:41.250Z,101080.66
2022-12-04T09:20:00.510Z,101073.83
2022-12-04T09:22:14.649Z,101068.75
2022-12-04T09:24:29.449Z,101067.02
2022-12-04T09:26:43.553Z,101065.58
2022-12-04T09:28:57.805Z,101060.14
2022-12-04T09:31:12.052Z,101059.94
2022-12-04T09:33:25.838Z,101056.79
2022-12-04T09:35:39.497Z,101054.34
2022-12-04T09:37:53.083Z,101056.13
2022-12-04T09:40:06.779Z,101060.58
2022-12-04T09:42:41.173Z,101056.06
2022-12-04T09:45:02.073Z,101058.45
2022-12-04T09:47:25.207Z,101057.77
2022-12-04T09:49:44.541Z,101059.34
2022-12-04T09:52:00.323Z,101058.54
2022-12-04T09:54:20.283Z,101057.38
2022-12-04T09:56:35.990Z,101064.26
2022-12-04T09:58:54.657Z,101071.52
2022-12-04T10:01:10.199Z,101075.11
2022-12-04T10:03:34.853Z,101072.53
2022-12-04T10:05:57.578Z,101075.02
2022-12-04T10:08:23.053Z,101073.80
2022-12-04T10:10:43.704Z,101074.86
2022-12-04T10:13:03.816Z,101068.35
2022-12-04T10:15:32.425Z,101072.04
2022-12-04T10:18:01.823Z,101071.19
2022-12-04T10:20:30.614Z,101068.36
2022-12-04T10:22:55.899Z,101069.13
2022-12-04T10:25:15.960Z,101062.83
2022-12-04T10:27:34.172Z,101056.81
2022-12-04T10:29:50.712Z,101051.14
2022-12-04T10:32:09.086Z,101050.41
2022-12-04T10:34:26.951Z,101054.41
2022-12-04T10:36:40.990Z,101054.02
2022-12-04T10:38:59.220Z,101050.42
2022-12-04T10:41:19.076Z,101043.55
2022-12-04T10:43:40.129Z,101037.38
2022-12-04T10:45:53.762Z,101035.09
2022-12-04T10:48:09.496Z,101035.48
2022-12-04T10:50:25.707Z,101035.81
2022-12-04T10:52:39.521Z,101032.29
2022-12-04T10:54:55.836Z,101036.54
2022-12-04T10:57:11.335Z,101032.48
2022-12-04T10:59:25.561Z,101028.61
2022-12-04T11:01:40.452Z,101026.80
2022-12-04T11:04:03.585Z,101029.43
2022-12-04T11:06:18.710Z,101026.63
2022-12-04T11:08:35.656Z,101019.64
2022-12-04T11:11:00.296Z,101025.29
2022-12-04T11:13:22.374Z,101022.67
2022-12-04T11:15:38.297Z,101016.54
2022-12-04T11:17:53.882Z,101018.32
2022-12-04T11:20:09.965Z,101015.89
2022-12-04T11:22:25.105Z,101013.07
2022-12-04T11:24:40.227Z,101015.04
2022-12-04T11:26:55.077Z,101008.34
2022-12-04T11:29:10.441Z,101004.31
2022-12-04T11:31:26.331Z,101013.41
2022-12-04T11:33:46.422Z,101002.85
2022-12-04T11:36:03.528Z,101002.36
2022-12-04T11:38:22.584Z,100994.94
2022-12-04T11:40:37.130Z,100991.17
2022-12-04T11:43:00.868Z,100992.90
2022-12-04T11:45:26.288Z,100988.49
2022-12-04T11:47:40.281Z,100997.07
2022-12-04T11:50:07.299Z,100999.34
2022-12-04T11:52:37.834Z,100999.45
2022-12-04T11:55:04.656Z,100996.94
2022-12-04T11:57:26.659Z,100997.25
2022-12-04T11:59:52.464Z,100998.95
2022-12-04T12:02:17.639Z,100993.61
2022-12-04T12:05:02.202Z,100994.45
2022-12-04T12:07:37.549Z,100987.74
2022-12-04T12:10:02.878Z,100994.27
2022-12-04T12:12:21.574Z,100994.63
2022-12-04T12:14:45.395Z,100997.63
2022-12-04T12:17:08.859Z,100998.20
2022-12-04T12:19:58.933Z,100998.42
2022-12-04T12:22:20.446Z,100996.16
2022-12-04T12:24:40.390Z,100997.08
2022-12-04T12:27:10.536Z,100997.80
2022-12-04T12:29:37.615Z,101001.00
2022-12-04T12:32:10.332Z,100994.49
2022-12-04T12:34:36.040Z,100998.92
2022-12-04T12:36:59.317Z,100991.54
2022-12-04T12:39:20.312Z,100986.95
2022-12-04T12:41:39.763Z,100985.53
2022-12-04T12:43:58.603Z,100986.26
2022-12-04T12:46:20.214Z,100986.64
2022-12-04T12:48:39.609Z,100992.09
2022-12-04T12:51:14.900Z,100993.50
2022-12-04T12:53:35.495Z,100992.27
2022-12-04T12:55:53.369Z,100993.48
2022-12-04T12:58:15.836Z,100988.39
2022-12-04T13:00:32.922Z,100993.67
2022-12-04T13:02:52.319Z,101001.29
2022-12-04T13:05:09.023Z,101006.05
2022-12-04T13:07:44.189Z,100998.83
2022-12-04T13:10:05.955Z,100999.56
2022-12-04T13:12:22.404Z,101004.12
2022-12-04T13:14:36.007Z,101002.07
2022-12-04T13:16:52.543Z,101004.40
2022-12-04T13:19:16.958Z,101005.11
2022-12-04T13:21:45.755Z,101013.08
2022-12-04T13:24:20.935Z,101014.77
2022-12-04T13:26:49.678Z,101007.82
2022-12-04T13:29:16.768Z,100998.04
2022-12-04T13:31:39.287Z,100996.73
2022-12-04T13:34:14.487Z,100993.59
2022-12-04T13:36:42.874Z,100994.73
2022-12-04T13:39:22.043Z,100989.82
2022-12-04T13:41:39.118Z,100983.16
2022-12-04T13:43:56.794Z,100979.11
2022-12-04T13:46:25.720Z,100978.41
2022-12-04T13:48:42.931Z,100975.63
2022-12-04T13:51:09.527Z,100974.21
2022-12-04T13:53:38.592Z,100981.41
2022-12-04T13:56:07.984Z,100984.23
2022-12-04T13:58:37.503Z,100982.27
2022-12-04T14:00:51.685Z,100988.38
2022-12-04T14:03:08.430Z,100990.11
2022-12-04T14:05:29.538Z,100990.07
2022-12-04T14:07:46.319Z,100979.63
2022-12-04T14:10:01.420Z,100987.86
2022-12-04T14:12:18.203Z,100996.64
2022-12-04T14:14:40.149Z,100996.61
2022-12-04T14:16:55.506Z,100993.05
2022-12-04T14:19:10.086Z,100993.58
2022-12-04T14:21:23.776Z,100989.48
2022-12-04T14:23:44.677Z,100985.05
2022-12-04T14:25:59.166Z,100994.48
2022-12-04T14:28:42.360Z,100992.54
2022-12-04T14:31:17.459Z,101000.95
2022-12-04T14:33:33.237Z,101006.23
2022-12-04T14:36:05.180Z,101006.80
2022-12-04T14:38:25.988Z,101011.06
2022-12-04T14:40:49.317Z,101009.85
2022-12-04T14:43:03.237Z,101012.63
2022-12-04T14:45:30.721Z,101013.34
2022-12-04T14:47:52.664Z,101013.38
2022-12-04T14:50:18.425Z,101007.56
2022-12-04T14:52:38.423Z,101008.63
2022-12-04T14:55:07.955Z,101013.59
2022-12-04T14:57:39.647Z,101015.88
2022-12-04T14:59:55.662Z,101014.85
2022-12-04T15:02:15.181Z,101017.50
2022-12-04T15:04:33.099Z,101018.39
2022-12-04T15:06:55.421Z,101015.61
2022-12-04T15:09:39.237Z,101018.27
2022-12-04T15:12:14.415Z,101018.84
2022-12-04T15:14:28.648Z,101021.16
2022-12-04T15:16:42.303Z,101018.60
2022-12-04T15:19:03.359Z,101020.23
2022-12-04T15:21:17.836Z,101021.61
2022-12-04T15:23:38.614Z,101026.86
2022-12-04T15:25:54.745Z,101029.30
2022-12-04T15:28:15.352Z,101028.52
2022-12-04T15:30:32.567Z,101031.23
2022-12-04T15:32:46.048Z,101035.56
2022-12-04T15:35:03.175Z,101033.20
2022-12-04T15:37:23.438Z,101032.73
2022-12-04T15:39:39.535Z,101033.59
2022-12-04T15:41:53.271Z,101035.84
2022-12-04T15:44:24.879Z,101035.29
2022-12-04T15:46:49.908Z,101035.45
2022-12-04T15:49:20.062Z,101043.72
2022-12-04T15:51:33.944Z,101046.36
2022-12-04T15:53:51.287Z,101052.29
2022-12-04T15:56:10.473Z,101051.02
2022-12-04T15:58:30.066Z,101055.91
2022-12-04T16:00:57.351Z,101053.45
2022-12-04T16:03:29.804Z,101060.05
2022-12-04T16:05:43.978Z,101063.80
2022-12-04T16:07:59.836Z,101066.13
2022-12-04T16:12:58.630Z,101070.43
2022-12-04T16:15:13.635Z,101071.39
2022-12-04T16:17:33.097Z,101074.90
2022-12-04T16:19:47.958Z,101080.83
2022-12-04T16:22:02.436Z,101083.79
2022-12-04T16:24:19.165Z,101088.11
2022-12-04T16:26:32.903Z,101092.43
2022-12-04T16:28:46.991Z,101096.98
2022-12-04T16:31:01.632Z,101099.20
2022-12-04T16:33:16.622Z,101104.45
2022-12-04T16:35:32.773Z,101104.58
2022-12-04T16:37:49.844Z,101114.02
2022-12-04T16:40:07.797Z,101119.20
2022-12-04T16:42:25.112Z,101126.36
2022-12-04T16:44:41.653Z,101127.52
2022-12-04T16:46:57.236Z,101120.06
2022-12-04T16:49:12.030Z,101122.29
2022-12-04T16:51:27.559Z,101117.52
2022-12-04T16:53:42.866Z,101117.33
2022-12-04T16:55:57.295Z,101119.42
2022-12-04T16:58:11.686Z,101118.20
2022-12-04T17:00:26.660Z,101122.08
2022-12-04T17:02:40.706Z,101120.32
2022-12-04T17:04:57.905Z,101119.95
2022-12-04T17:07:12.064Z,101122.94
2022-12-04T17:09:25.693Z,101121.89
2022-12-04T17:11:39.299Z,101123.17
2022-12-04T17:13:53.009Z,101124.67
2022-12-04T17:16:06.626Z,101125.62
2022-12-04T17:18:21.617Z,101124.84
2022-12-04T17:20:35.333Z,101130.66
2022-12-04T17:22:48.904Z,101139.09
2022-12-04T17:25:03.111Z,101142.05
2022-12-04T17:27:16.965Z,101139.83
2022-12-04T17:29:30.824Z,101146.96
2022-12-04T17:31:44.507Z,101154.69
2022-12-04T17:34:00.245Z,101159.73
2022-12-04T17:36:17.424Z,101160.77
2022-12-04T17:38:30.987Z,101165.95
2022-12-04T17:40:44.641Z,101166.95
2022-12-04T17:42:58.194Z,101172.89
2022-12-04T17:45:14.830Z,101177.43
2022-12-04T17:47:28.476Z,101175.88
2022-12-04T17:49:42.147Z,101179.92
2022-12-04T17:51:59.062Z,101177.26
2022-12-04T17:54:14.430Z,101183.02
2022-12-04T17:56:28.773Z,101182.75
2022-12-04T17:58:42.590Z,101182.82
2022-12-04T18:00:56.431Z,101189.04
2022-12-04T18:03:10.344Z,101186.92
2022-12-04T18:05:27.030Z,101194.85
2022-12-04T18:07:40.802Z,101202.02
2022-12-04T18:09:54.585Z,101204.02
2022-12-04T18:12:08.824Z,101196.63
2022-12-04T18:14:25.275Z,101197.55
2022-12-04T18:16:40.595Z,101199.88
2022-12-04T18:18:56.155Z,101204.81
2022-12-04T18:21:12.390Z,101205.48
2022-12-04T18:23:25.954Z,101204.69
2022-12-04T18:25:39.683Z,101206.23
2022-12-04T18:27:53.264Z,101205.71
2022-12-04T18:30:07.004Z,101208.23
2022-12-04T18:32:20.640Z,101209.85
2022-12-04T18:34:34.501Z,101217.02
2022-12-04T18:36:48.567Z,101222.25
2022-12-04T18:39:04.387Z,101221.58
2022-12-04T18:41:18.691Z,101218.14
2022-12-04T18:43:33.411Z,101221.08
2022-12-04T18:45:47.147Z,101220.98
2022-12-04T18:48:01.993Z,101220.84
2022-12-04T18:50:16.321Z,101220.87
2022-12-04T18:52:29.652Z,101223.02
2022-12-04T18:54:42.999Z,101223.11
2022-12-04T18:56:56.777Z,101222.24
2022-12-04T18:59:11.760Z,101228.80
2022-12-04T19:01:25.576Z,101230.44
2022-12-04T19:03:39.299Z,101232.41
2022-12-04T19:05:56.867Z,101231.56
2022-12-04T19:08:10.452Z,101230.19
2022-12-04T19:10:24.177Z,101234.08
2022-12-04T19:12:37.985Z,101234.95
2022-12-04T19:14:51.539Z,101239.55
2022-12-04T19:17:05.053Z,101240.13
2022-12-04T19:19:19.071Z,101242.08
2022-12-04T19:21:32.784Z,101239.56
2022-12-04T19:23:46.565Z,101238.69
2022-12-04T19:26:03.884Z,101238.33
2022-12-04T19:28:17.445Z,101237.10
2022-12-04T19:30:30.901Z,101237.48
2022-12-04T19:32:44.437Z,101241.98
2022-12-04T19:34:57.963Z,101242.11
2022-12-04T19:37:11.380Z,101237.38
2022-12-04T19:39:24.742Z,101238.88
2022-12-04T19:41:38.411Z,101234.95
2022-12-04T19:43:52.847Z,101234.56
2022-12-04T19:46:06.210Z,101237.83
2022-12-04T19:48:19.699Z,101239.30
2022-12-04T19:50:33.623Z,101236.77
2022-12-04T19:52:47.338Z,101232.78
2022-12-04T19:55:00.717Z,101232.71
2022-12-04T19:57:14.904Z,101234.72
2022-12-04T19:59:33.044Z,101234.95
2022-12-04T20:01:49.576Z,101233.20
2022-12-04T20:04:03.607Z,101229.42
2022-12-04T20:06:19.366Z,101227.27
2022-12-04T20:08:32.709Z,101225.01
2022-12-04T20:10:46.020Z,101220.67
2022-12-04T20:12:59.412Z,101218.48
2022-12-04T20:15:13.449Z,101214.61
2022-12-04T20:17:26.704Z,101215.11
2022-12-04T20:19:40.039Z,101213.65
2022-12-04T20:21:58.915Z,101213.29
2022-12-04T20:24:14.812Z,101212.33
2022-12-04T20:26:30.268Z,101212.67
2022-12-04T20:28:44.693Z,101207.56
2022-12-04T20:30:58.728Z,101206.35
2022-12-04T20:33:12.164Z,101203.69
2022-12-04T20:35:25.868Z,101205.35
2022-12-04T20:37:39.487Z,101207.05
2022-12-04T20:39:52.808Z,101213.19
2022-12-04T20:42:06.216Z,101208.45
2022-12-04T20:44:21.318Z,101206.02
2022-12-04T20:46:36.526Z,101205.27
2022-12-04T20:48:51.030Z,101203.34
2022-12-04T20:51:06.967Z,101205.78
2022-12-04T20:53:20.441Z,101209.13
2022-12-04T20:55:33.772Z,101208.20
2022-12-04T20:57:47.099Z,101206.25
2022-12-04T21:00:01.975Z,101205.87
2022-12-04T21:02:16.659Z,101201.95
2022-12-04T21:04:30.114Z,101201.52
2022-12-04T21:06:44.649Z,101201.95
2022-12-04T21:08:58.994Z,101199.42
2022-12-04T21:11:12.353Z,101197.77
2022-12-04T21:13:41.984Z,101195.27
2022-12-04T21:16:06.148Z,101194.19
2022-12-04T21:18:19.464Z,101190.83
2022-12-04T21:20:32.589Z,101190.55
2022-12-04T21:22:45.771Z,101191.45
2022-12-04T21:24:59.315Z,101190.42
2022-12-04T21:27:17.373Z,101189.04
2022-12-04T21:29:34.275Z,101182.23
2022-12-04T21:31:47.658Z,101181.55
2022-12-04T21:34:04.262Z,101180.67
2022-12-04T21:36:17.798Z,101181.38
2022-12-04T21:38:31.134Z,101178.91
2022-12-04T21:40:44.547Z,101179.96
2022-12-04T21:42:57.866Z,101186.24
2022-12-04T21:45:13.158Z,101181.99
2022-12-04T21:47:29.787Z,101179.60
2022-12-04T21:49:44.074Z,101177.06
2022-12-04T21:51:58.652Z,101176.30
2022-12-04T21:54:12.627Z,101173.97
2022-12-04T21:56:26.001Z,101178.83
2022-12-04T21:58:39.352Z,101180.74
2022-12-04T22:00:53.054Z,101181.55
2022-12-04T22:03:07.232Z,101182.02
2022-12-04T22:05:20.976Z,101182.69
2022-12-04T22:07:34.616Z,101182.60
2022-12-04T22:09:48.256Z,101184.73
2022-12-04T22:12:06.802Z,101185.02
2022-12-04T22:14:28.168Z,101180.67
2022-12-04T22:16:42.791Z,101174.59
2022-12-04T22:19:00.374Z,101174.16
2022-12-04T22:21:16.128Z,101171.92
2022-12-04T22:23:29.813Z,101171.28
2022-12-04T22:25:43.398Z,101174.69
2022-12-04T22:27:58.296Z,101173.14
2022-12-04T22:30:14.129Z,101174.13
2022-12-04T22:32:28.067Z,101179.45
2022-12-04T22:34:41.452Z,101183.20
2022-12-04T22:36:55.291Z,101187.98
2022-12-04T22:39:10.201Z,101191.63
2022-12-04T22:41:25.969Z,101194.15
2022-12-04T22:43:41.043Z,101199.48
2022-12-04T22:45:55.471Z,101199.24
2022-12-04T22:48:09.192Z,101204.56
2022-12-04T22:50:23.089Z,101206.52
2022-12-04T22:52:37.913Z,101203.70
2022-12-04T22:54:53.017Z,101206.70
2022-12-04T22:57:06.421Z,101207.39
2022-12-04T22:59:19.836Z,101208.39
2022-12-04T23:01:34.591Z,101198.98
2022-12-04T23:03:49.053Z,101200.96
2022-12-04T23:06:06.257Z,101202.64
2022-12-04T23:08:19.896Z,101205.59
2022-12-04T23:10:33.253Z,101207.67
2022-12-04T23:12:46.588Z,101207.17
2022-12-04T23:15:00.145Z,101205.34
2022-12-04T23:17:13.525Z,101204.54
2022-12-04T23:19:27.224Z,101206.94
2022-12-04T23:21:40.700Z,101202.82
2022-12-04T23:23:55.236Z,101208.34
2022-12-04T23:26:10.905Z,101207.04
2022-12-04T23:28:24.560Z,101212.73
2022-12-04T23:30:37.913Z,101213.81
2022-12-04T23:32:51.214Z,101210.51
2022-12-04T23:35:04.567Z,101211.58
2022-12-04T23:37:17.795Z,101216.32
2022-12-04T23:39:31.370Z,101215.95
2022-12-04T23:41:44.656Z,101218.05
2022-12-04T23:43:58.674Z,101220.30
2022-12-04T23:46:12.415Z,101223.45
2022-12-04T23:48:25.658Z,101223.40
2022-12-04T23:50:38.934Z,101220.20
2022-12-04T23:52:52.145Z,101217.33
2022-12-04T23:55:05.402Z,101216.41
2022-12-04T23:57:18.608Z,101216.38
2022-12-04T23:59:31.837Z,101214.27
